sensor_id;sensor_type;location;lat;lon;timestamp;P1;durP1;ratioP1;P2;durP2;ratioP2
10904;SDS011;5505;51.450;9.254;2023-09-30T00:00:45;5.87;;;2.53;;
10904;SDS011;5505;51.450;9.254;2023-09-30T00:03:33;7.33;;;2.70;;
10904;SDS011;5505;51.450;9.254;2023-09-30T00:06:20;5.97;;;2.07;;
10904;SDS011;5505;51.450;9.254;2023-09-30T00:09:07;7.67;;;2.60;;
10904;SDS011;5505;51.450;9.254;2023-09-30T00:11:53;6.60;;;2.60;;
10904;SDS011;5505;51.450;9.254;2023-09-30T00:14:41;6.07;;;2.47;;
10904;SDS011;5505;51.450;9.254;2023-09-30T00:17:27;6.07;;;2.30;;
10904;SDS011;5505;51.450;9.254;2023-09-30T00:20:16;6.47;;;2.70;;
10904;SDS011;5505;51.450;9.254;2023-09-30T00:23:04;5.80;;;2.53;;
10904;SDS011;5505;51.450;9.254;2023-09-30T00:25:51;6.37;;;2.60;;
10904;SDS011;5505;51.450;9.254;2023-09-30T00:28:38;10.63;;;2.70;;
10904;SDS011;5505;51.450;9.254;2023-09-30T00:31:25;8.03;;;2.83;;
10904;SDS011;5505;51.450;9.254;2023-09-30T00:34:11;5.50;;;2.20;;
10904;SDS011;5505;51.450;9.254;2023-09-30T00:37:00;8.40;;;2.47;;
10904;SDS011;5505;51.450;9.254;2023-09-30T00:39:46;7.23;;;2.47;;
10904;SDS011;5505;51.450;9.254;2023-09-30T00:42:33;8.30;;;2.50;;
10904;SDS011;5505;51.450;9.254;2023-09-30T00:45:20;5.80;;;2.53;;
10904;SDS011;5505;51.450;9.254;2023-09-30T00:48:07;5.93;;;2.13;;
10904;SDS011;5505;51.450;9.254;2023-09-30T00:50:53;8.33;;;2.67;;
10904;SDS011;5505;51.450;9.254;2023-09-30T00:53:42;6.40;;;2.50;;
10904;SDS011;5505;51.450;9.254;2023-09-30T00:56:29;6.20;;;2.50;;
10904;SDS011;5505;51.450;9.254;2023-09-30T00:59:16;5.43;;;2.20;;
10904;SDS011;5505;51.450;9.254;2023-09-30T01:02:04;5.17;;;1.90;;
10904;SDS011;5505;51.450;9.254;2023-09-30T01:04:52;7.00;;;2.77;;
10904;SDS011;5505;51.450;9.254;2023-09-30T01:07:40;5.50;;;2.63;;
10904;SDS011;5505;51.450;9.254;2023-09-30T01:10:28;6.60;;;2.50;;
10904;SDS011;5505;51.450;9.254;2023-09-30T01:13:15;5.30;;;2.30;;
10904;SDS011;5505;51.450;9.254;2023-09-30T01:16:04;4.73;;;2.27;;
10904;SDS011;5505;51.450;9.254;2023-09-30T01:18:54;6.97;;;2.50;;
10904;SDS011;5505;51.450;9.254;2023-09-30T01:21:42;5.47;;;2.30;;
10904;SDS011;5505;51.450;9.254;2023-09-30T01:24:37;7.37;;;2.57;;
10904;SDS011;5505;51.450;9.254;2023-09-30T01:27:25;5.90;;;2.23;;
10904;SDS011;5505;51.450;9.254;2023-09-30T01:30:12;8.33;;;2.50;;
10904;SDS011;5505;51.450;9.254;2023-09-30T01:32:59;5.90;;;2.37;;
10904;SDS011;5505;51.450;9.254;2023-09-30T01:35:46;7.13;;;2.10;;
10904;SDS011;5505;51.450;9.254;2023-09-30T01:38:34;7.53;;;2.50;;
10904;SDS011;5505;51.450;9.254;2023-09-30T01:41:21;6.90;;;2.30;;
10904;SDS011;5505;51.450;9.254;2023-09-30T01:44:08;8.33;;;2.43;;
10904;SDS011;5505;51.450;9.254;2023-09-30T01:46:55;6.47;;;2.23;;
10904;SDS011;5505;51.450;9.254;2023-09-30T01:49:42;5.23;;;2.50;;
10904;SDS011;5505;51.450;9.254;2023-09-30T01:52:28;5.40;;;2.10;;
10904;SDS011;5505;51.450;9.254;2023-09-30T01:55:16;6.27;;;2.50;;
10904;SDS011;5505;51.450;9.254;2023-09-30T01:58:03;7.40;;;2.60;;
10904;SDS011;5505;51.450;9.254;2023-09-30T02:00:51;6.10;;;2.27;;
10904;SDS011;5505;51.450;9.254;2023-09-30T02:03:37;5.00;;;2.43;;
10904;SDS011;5505;51.450;9.254;2023-09-30T02:06:24;7.40;;;2.43;;
10904;SDS011;5505;51.450;9.254;2023-09-30T02:09:11;4.50;;;2.67;;
10904;SDS011;5505;51.450;9.254;2023-09-30T02:11:59;7.77;;;2.30;;
10904;SDS011;5505;51.450;9.254;2023-09-30T02:14:46;8.17;;;2.60;;
10904;SDS011;5505;51.450;9.254;2023-09-30T02:17:33;9.27;;;2.70;;
10904;SDS011;5505;51.450;9.254;2023-09-30T02:20:20;5.73;;;2.40;;
10904;SDS011;5505;51.450;9.254;2023-09-30T02:23:10;5.30;;;2.57;;
10904;SDS011;5505;51.450;9.254;2023-09-30T02:25:57;5.23;;;2.57;;
10904;SDS011;5505;51.450;9.254;2023-09-30T02:28:45;6.13;;;3.00;;
10904;SDS011;5505;51.450;9.254;2023-09-30T02:31:32;6.87;;;2.43;;
10904;SDS011;5505;51.450;9.254;2023-09-30T02:34:19;7.43;;;2.80;;
10904;SDS011;5505;51.450;9.254;2023-09-30T02:37:06;5.87;;;2.23;;
10904;SDS011;5505;51.450;9.254;2023-09-30T02:39:54;6.67;;;3.10;;
10904;SDS011;5505;51.450;9.254;2023-09-30T02:42:40;8.13;;;3.13;;
10904;SDS011;5505;51.450;9.254;2023-09-30T02:45:29;6.20;;;2.80;;
10904;SDS011;5505;51.450;9.254;2023-09-30T02:48:16;7.83;;;2.47;;
10904;SDS011;5505;51.450;9.254;2023-09-30T02:51:03;4.27;;;2.37;;
10904;SDS011;5505;51.450;9.254;2023-09-30T02:53:49;5.60;;;2.27;;
10904;SDS011;5505;51.450;9.254;2023-09-30T02:56:36;8.20;;;2.60;;
10904;SDS011;5505;51.450;9.254;2023-09-30T02:59:23;5.60;;;2.57;;
10904;SDS011;5505;51.450;9.254;2023-09-30T03:02:11;7.07;;;2.80;;
10904;SDS011;5505;51.450;9.254;2023-09-30T03:04:58;4.97;;;2.40;;
10904;SDS011;5505;51.450;9.254;2023-09-30T03:07:44;6.63;;;2.70;;
10904;SDS011;5505;51.450;9.254;2023-09-30T03:10:32;6.80;;;2.40;;
10904;SDS011;5505;51.450;9.254;2023-09-30T03:13:19;5.37;;;2.60;;
10904;SDS011;5505;51.450;9.254;2023-09-30T03:16:06;9.07;;;2.87;;
10904;SDS011;5505;51.450;9.254;2023-09-30T03:18:54;5.27;;;3.00;;
10904;SDS011;5505;51.450;9.254;2023-09-30T03:21:41;6.13;;;2.67;;
10904;SDS011;5505;51.450;9.254;2023-09-30T03:24:28;6.80;;;2.63;;
10904;SDS011;5505;51.450;9.254;2023-09-30T03:27:15;10.00;;;2.70;;
10904;SDS011;5505;51.450;9.254;2023-09-30T03:30:02;7.47;;;2.80;;
10904;SDS011;5505;51.450;9.254;2023-09-30T03:32:50;7.13;;;2.90;;
10904;SDS011;5505;51.450;9.254;2023-09-30T03:35:38;7.00;;;2.73;;
10904;SDS011;5505;51.450;9.254;2023-09-30T03:38:26;8.67;;;2.83;;
10904;SDS011;5505;51.450;9.254;2023-09-30T03:41:14;7.90;;;2.43;;
10904;SDS011;5505;51.450;9.254;2023-09-30T03:44:01;5.20;;;2.50;;
10904;SDS011;5505;51.450;9.254;2023-09-30T03:46:48;7.97;;;2.57;;
10904;SDS011;5505;51.450;9.254;2023-09-30T03:49:35;4.33;;;2.20;;
10904;SDS011;5505;51.450;9.254;2023-09-30T03:52:24;6.33;;;3.00;;
10904;SDS011;5505;51.450;9.254;2023-09-30T03:55:13;8.50;;;2.77;;
10904;SDS011;5505;51.450;9.254;2023-09-30T03:58:00;7.63;;;2.90;;
10904;SDS011;5505;51.450;9.254;2023-09-30T04:00:48;10.77;;;2.90;;
10904;SDS011;5505;51.450;9.254;2023-09-30T04:03:36;6.53;;;2.87;;
10904;SDS011;5505;51.450;9.254;2023-09-30T04:06:24;7.37;;;2.50;;
10904;SDS011;5505;51.450;9.254;2023-09-30T04:09:13;7.30;;;2.67;;
10904;SDS011;5505;51.450;9.254;2023-09-30T04:12:01;7.63;;;2.47;;
10904;SDS011;5505;51.450;9.254;2023-09-30T04:14:48;5.37;;;2.53;;
10904;SDS011;5505;51.450;9.254;2023-09-30T04:17:35;9.13;;;2.70;;
10904;SDS011;5505;51.450;9.254;2023-09-30T04:20:23;8.13;;;2.40;;
10904;SDS011;5505;51.450;9.254;2023-09-30T04:23:12;7.23;;;2.57;;
10904;SDS011;5505;51.450;9.254;2023-09-30T04:26:00;5.97;;;2.30;;
10904;SDS011;5505;51.450;9.254;2023-09-30T04:28:47;11.27;;;2.77;;
10904;SDS011;5505;51.450;9.254;2023-09-30T04:31:34;9.43;;;2.67;;
10904;SDS011;5505;51.450;9.254;2023-09-30T04:34:21;6.47;;;2.13;;
10904;SDS011;5505;51.450;9.254;2023-09-30T04:37:07;9.90;;;3.00;;
10904;SDS011;5505;51.450;9.254;2023-09-30T04:39:55;7.00;;;3.20;;
10904;SDS011;5505;51.450;9.254;2023-09-30T04:42:44;7.40;;;3.20;;
10904;SDS011;5505;51.450;9.254;2023-09-30T04:45:31;7.70;;;3.40;;
10904;SDS011;5505;51.450;9.254;2023-09-30T04:48:18;8.77;;;2.60;;
10904;SDS011;5505;51.450;9.254;2023-09-30T04:51:06;6.03;;;2.50;;
10904;SDS011;5505;51.450;9.254;2023-09-30T04:53:53;8.47;;;2.90;;
10904;SDS011;5505;51.450;9.254;2023-09-30T04:56:40;5.70;;;2.20;;
10904;SDS011;5505;51.450;9.254;2023-09-30T04:59:29;5.70;;;2.00;;
10904;SDS011;5505;51.450;9.254;2023-09-30T05:02:15;4.80;;;2.13;;
10904;SDS011;5505;51.450;9.254;2023-09-30T05:05:02;5.37;;;2.07;;
10904;SDS011;5505;51.450;9.254;2023-09-30T05:07:51;5.27;;;2.07;;
10904;SDS011;5505;51.450;9.254;2023-09-30T05:10:37;6.70;;;2.67;;
10904;SDS011;5505;51.450;9.254;2023-09-30T05:13:25;8.53;;;2.60;;
10904;SDS011;5505;51.450;9.254;2023-09-30T05:16:13;8.00;;;2.40;;
10904;SDS011;5505;51.450;9.254;2023-09-30T05:18:59;6.60;;;2.67;;
10904;SDS011;5505;51.450;9.254;2023-09-30T05:21:46;11.20;;;2.20;;
10904;SDS011;5505;51.450;9.254;2023-09-30T05:24:34;4.20;;;2.17;;
10904;SDS011;5505;51.450;9.254;2023-09-30T05:27:21;5.83;;;2.40;;
10904;SDS011;5505;51.450;9.254;2023-09-30T05:30:08;5.97;;;2.63;;
10904;SDS011;5505;51.450;9.254;2023-09-30T05:32:57;6.37;;;2.30;;
10904;SDS011;5505;51.450;9.254;2023-09-30T05:35:44;8.00;;;2.40;;
10904;SDS011;5505;51.450;9.254;2023-09-30T05:38:31;7.07;;;2.30;;
10904;SDS011;5505;51.450;9.254;2023-09-30T05:41:18;7.40;;;2.23;;
10904;SDS011;5505;51.450;9.254;2023-09-30T05:44:05;6.77;;;2.07;;
10904;SDS011;5505;51.450;9.254;2023-09-30T05:46:53;6.23;;;2.07;;
10904;SDS011;5505;51.450;9.254;2023-09-30T05:49:41;5.77;;;2.27;;
10904;SDS011;5505;51.450;9.254;2023-09-30T05:52:28;6.50;;;2.20;;
10904;SDS011;5505;51.450;9.254;2023-09-30T05:55:14;9.20;;;2.30;;
10904;SDS011;5505;51.450;9.254;2023-09-30T05:58:01;10.13;;;2.57;;
10904;SDS011;5505;51.450;9.254;2023-09-30T06:00:48;5.63;;;2.30;;
10904;SDS011;5505;51.450;9.254;2023-09-30T06:03:36;6.93;;;2.57;;
10904;SDS011;5505;51.450;9.254;2023-09-30T06:06:26;6.07;;;2.40;;
10904;SDS011;5505;51.450;9.254;2023-09-30T06:09:14;7.37;;;2.30;;
10904;SDS011;5505;51.450;9.254;2023-09-30T06:12:01;8.73;;;2.50;;
10904;SDS011;5505;51.450;9.254;2023-09-30T06:14:51;6.70;;;2.20;;
10904;SDS011;5505;51.450;9.254;2023-09-30T06:17:38;6.03;;;2.40;;
10904;SDS011;5505;51.450;9.254;2023-09-30T06:20:25;7.47;;;2.57;;
10904;SDS011;5505;51.450;9.254;2023-09-30T06:23:17;6.97;;;2.30;;
10904;SDS011;5505;51.450;9.254;2023-09-30T06:26:03;6.40;;;2.53;;
10904;SDS011;5505;51.450;9.254;2023-09-30T06:28:50;7.83;;;2.67;;
10904;SDS011;5505;51.450;9.254;2023-09-30T06:31:39;8.93;;;2.60;;
10904;SDS011;5505;51.450;9.254;2023-09-30T06:34:26;8.30;;;2.40;;
10904;SDS011;5505;51.450;9.254;2023-09-30T06:37:12;15.20;;;2.77;;
10904;SDS011;5505;51.450;9.254;2023-09-30T06:40:00;9.30;;;2.40;;
10904;SDS011;5505;51.450;9.254;2023-09-30T06:42:48;6.70;;;2.20;;
10904;SDS011;5505;51.450;9.254;2023-09-30T06:45:35;6.57;;;2.33;;
10904;SDS011;5505;51.450;9.254;2023-09-30T06:48:26;11.23;;;2.63;;
10904;SDS011;5505;51.450;9.254;2023-09-30T06:51:13;5.90;;;2.10;;
10904;SDS011;5505;51.450;9.254;2023-09-30T06:54:01;6.97;;;2.53;;
10904;SDS011;5505;51.450;9.254;2023-09-30T06:56:54;11.43;;;2.30;;
10904;SDS011;5505;51.450;9.254;2023-09-30T06:59:41;9.63;;;2.87;;
10904;SDS011;5505;51.450;9.254;2023-09-30T07:02:27;11.93;;;3.00;;
10904;SDS011;5505;51.450;9.254;2023-09-30T07:05:14;8.77;;;3.13;;
10904;SDS011;5505;51.450;9.254;2023-09-30T07:08:03;8.47;;;2.70;;
10904;SDS011;5505;51.450;9.254;2023-09-30T07:10:50;9.67;;;3.17;;
10904;SDS011;5505;51.450;9.254;2023-09-30T07:13:39;7.97;;;2.60;;
10904;SDS011;5505;51.450;9.254;2023-09-30T07:16:25;10.47;;;2.60;;
10904;SDS011;5505;51.450;9.254;2023-09-30T07:19:12;7.40;;;2.43;;
10904;SDS011;5505;51.450;9.254;2023-09-30T07:21:59;10.43;;;2.73;;
10904;SDS011;5505;51.450;9.254;2023-09-30T07:24:47;10.20;;;3.20;;
10904;SDS011;5505;51.450;9.254;2023-09-30T07:27:34;8.13;;;2.83;;
10904;SDS011;5505;51.450;9.254;2023-09-30T07:30:22;7.23;;;2.50;;
10904;SDS011;5505;51.450;9.254;2023-09-30T07:33:09;11.27;;;2.80;;
10904;SDS011;5505;51.450;9.254;2023-09-30T07:35:56;7.47;;;2.63;;
10904;SDS011;5505;51.450;9.254;2023-09-30T07:38:43;8.73;;;2.47;;
10904;SDS011;5505;51.450;9.254;2023-09-30T07:41:34;8.33;;;2.60;;
10904;SDS011;5505;51.450;9.254;2023-09-30T07:44:21;8.20;;;2.60;;
10904;SDS011;5505;51.450;9.254;2023-09-30T07:47:09;4.70;;;2.23;;
10904;SDS011;5505;51.450;9.254;2023-09-30T07:49:56;10.43;;;2.90;;
10904;SDS011;5505;51.450;9.254;2023-09-30T07:52:43;7.33;;;2.50;;
10904;SDS011;5505;51.450;9.254;2023-09-30T07:55:31;7.20;;;2.33;;
10904;SDS011;5505;51.450;9.254;2023-09-30T07:58:17;6.73;;;2.60;;
10904;SDS011;5505;51.450;9.254;2023-09-30T08:01:04;6.63;;;2.60;;
10904;SDS011;5505;51.450;9.254;2023-09-30T08:03:52;8.60;;;2.40;;
10904;SDS011;5505;51.450;9.254;2023-09-30T08:06:39;10.03;;;2.70;;
10904;SDS011;5505;51.450;9.254;2023-09-30T08:09:26;10.00;;;2.70;;
10904;SDS011;5505;51.450;9.254;2023-09-30T08:12:12;9.50;;;2.70;;
10904;SDS011;5505;51.450;9.254;2023-09-30T08:14:59;9.40;;;2.50;;
10904;SDS011;5505;51.450;9.254;2023-09-30T08:17:48;4.83;;;2.17;;
10904;SDS011;5505;51.450;9.254;2023-09-30T08:20:36;8.97;;;2.33;;
10904;SDS011;5505;51.450;9.254;2023-09-30T08:23:23;9.10;;;2.40;;
10904;SDS011;5505;51.450;9.254;2023-09-30T08:26:10;5.67;;;2.10;;
10904;SDS011;5505;51.450;9.254;2023-09-30T08:28:57;9.17;;;2.87;;
10904;SDS011;5505;51.450;9.254;2023-09-30T08:31:43;6.97;;;2.47;;
10904;SDS011;5505;51.450;9.254;2023-09-30T08:34:30;6.60;;;2.30;;
10904;SDS011;5505;51.450;9.254;2023-09-30T08:37:19;6.93;;;2.40;;
10904;SDS011;5505;51.450;9.254;2023-09-30T08:40:07;9.47;;;2.57;;
10904;SDS011;5505;51.450;9.254;2023-09-30T08:42:55;8.37;;;2.37;;
10904;SDS011;5505;51.450;9.254;2023-09-30T08:45:43;4.83;;;1.73;;
10904;SDS011;5505;51.450;9.254;2023-09-30T08:48:33;7.80;;;1.90;;
10904;SDS011;5505;51.450;9.254;2023-09-30T08:51:20;5.10;;;2.47;;
10904;SDS011;5505;51.450;9.254;2023-09-30T08:54:09;7.37;;;2.50;;
10904;SDS011;5505;51.450;9.254;2023-09-30T08:56:56;7.17;;;3.03;;
10904;SDS011;5505;51.450;9.254;2023-09-30T08:59:44;7.90;;;2.73;;
10904;SDS011;5505;51.450;9.254;2023-09-30T09:02:33;6.87;;;2.43;;
10904;SDS011;5505;51.450;9.254;2023-09-30T09:05:20;9.57;;;2.83;;
10904;SDS011;5505;51.450;9.254;2023-09-30T09:08:07;5.27;;;1.90;;
10904;SDS011;5505;51.450;9.254;2023-09-30T09:10:56;5.17;;;1.50;;
10904;SDS011;5505;51.450;9.254;2023-09-30T09:13:45;6.67;;;1.43;;
10904;SDS011;5505;51.450;9.254;2023-09-30T09:16:34;5.23;;;1.90;;
10904;SDS011;5505;51.450;9.254;2023-09-30T09:19:23;4.87;;;1.77;;
10904;SDS011;5505;51.450;9.254;2023-09-30T09:22:10;6.23;;;2.03;;
10904;SDS011;5505;51.450;9.254;2023-09-30T09:24:56;5.10;;;1.70;;
10904;SDS011;5505;51.450;9.254;2023-09-30T09:27:47;7.17;;;1.70;;
10904;SDS011;5505;51.450;9.254;2023-09-30T09:30:34;4.83;;;1.57;;
10904;SDS011;5505;51.450;9.254;2023-09-30T09:33:31;6.97;;;1.63;;
10904;SDS011;5505;51.450;9.254;2023-09-30T09:36:22;5.90;;;1.70;;
10904;SDS011;5505;51.450;9.254;2023-09-30T09:39:28;8.33;;;1.73;;
10904;SDS011;5505;51.450;9.254;2023-09-30T09:42:23;4.87;;;1.67;;
10904;SDS011;5505;51.450;9.254;2023-09-30T09:45:12;6.40;;;1.77;;
10904;SDS011;5505;51.450;9.254;2023-09-30T09:47:59;6.17;;;1.90;;
10904;SDS011;5505;51.450;9.254;2023-09-30T09:50:46;3.87;;;1.53;;
10904;SDS011;5505;51.450;9.254;2023-09-30T09:53:36;5.20;;;1.57;;
10904;SDS011;5505;51.450;9.254;2023-09-30T09:56:27;3.57;;;1.63;;
10904;SDS011;5505;51.450;9.254;2023-09-30T09:59:14;6.00;;;1.50;;
10904;SDS011;5505;51.450;9.254;2023-09-30T10:02:02;5.20;;;1.73;;
10904;SDS011;5505;51.450;9.254;2023-09-30T10:04:57;6.17;;;1.90;;
10904;SDS011;5505;51.450;9.254;2023-09-30T10:07:47;4.73;;;1.50;;
10904;SDS011;5505;51.450;9.254;2023-09-30T10:10:40;5.27;;;1.80;;
10904;SDS011;5505;51.450;9.254;2023-09-30T10:13:55;3.87;;;1.67;;
10904;SDS011;5505;51.450;9.254;2023-09-30T10:16:49;4.87;;;2.03;;
10904;SDS011;5505;51.450;9.254;2023-09-30T10:19:39;6.00;;;1.73;;
10904;SDS011;5505;51.450;9.254;2023-09-30T10:22:49;3.77;;;1.57;;
10904;SDS011;5505;51.450;9.254;2023-09-30T10:26:13;3.87;;;1.33;;
10904;SDS011;5505;51.450;9.254;2023-09-30T10:29:08;4.23;;;1.60;;
10904;SDS011;5505;51.450;9.254;2023-09-30T10:31:55;5.80;;;1.60;;
10904;SDS011;5505;51.450;9.254;2023-09-30T10:34:48;5.27;;;1.57;;
10904;SDS011;5505;51.450;9.254;2023-09-30T10:37:37;4.27;;;1.93;;
10904;SDS011;5505;51.450;9.254;2023-09-30T10:40:25;5.20;;;2.03;;
10904;SDS011;5505;51.450;9.254;2023-09-30T10:46:31;4.17;;;1.50;;
10904;SDS011;5505;51.450;9.254;2023-09-30T10:49:30;6.20;;;1.70;;
10904;SDS011;5505;51.450;9.254;2023-09-30T10:52:22;2.80;;;1.50;;
10904;SDS011;5505;51.450;9.254;2023-09-30T10:55:09;3.70;;;1.70;;
10904;SDS011;5505;51.450;9.254;2023-09-30T10:57:56;5.80;;;1.83;;
10904;SDS011;5505;51.450;9.254;2023-09-30T11:00:51;4.10;;;1.67;;
10904;SDS011;5505;51.450;9.254;2023-09-30T11:03:39;3.23;;;1.50;;
10904;SDS011;5505;51.450;9.254;2023-09-30T11:06:26;4.33;;;1.40;;
10904;SDS011;5505;51.450;9.254;2023-09-30T11:09:16;4.63;;;1.70;;
10904;SDS011;5505;51.450;9.254;2023-09-30T11:12:04;4.50;;;1.70;;
10904;SDS011;5505;51.450;9.254;2023-09-30T11:15:00;4.37;;;1.30;;
10904;SDS011;5505;51.450;9.254;2023-09-30T11:17:48;6.60;;;1.57;;
10904;SDS011;5505;51.450;9.254;2023-09-30T11:20:35;4.53;;;1.73;;
10904;SDS011;5505;51.450;9.254;2023-09-30T11:23:22;3.13;;;1.40;;
10904;SDS011;5505;51.450;9.254;2023-09-30T11:26:10;3.30;;;1.37;;
10904;SDS011;5505;51.450;9.254;2023-09-30T11:29:04;4.43;;;1.60;;
10904;SDS011;5505;51.450;9.254;2023-09-30T11:31:52;3.10;;;1.37;;
10904;SDS011;5505;51.450;9.254;2023-09-30T11:34:38;3.83;;;1.33;;
10904;SDS011;5505;51.450;9.254;2023-09-30T11:37:30;2.47;;;1.47;;
10904;SDS011;5505;51.450;9.254;2023-09-30T11:40:18;4.70;;;1.77;;
10904;SDS011;5505;51.450;9.254;2023-09-30T11:43:11;4.40;;;1.43;;
10904;SDS011;5505;51.450;9.254;2023-09-30T11:46:03;8.00;;;2.10;;
10904;SDS011;5505;51.450;9.254;2023-09-30T11:48:57;3.87;;;1.40;;
10904;SDS011;5505;51.450;9.254;2023-09-30T11:51:45;4.57;;;1.50;;
10904;SDS011;5505;51.450;9.254;2023-09-30T11:54:32;4.77;;;1.40;;
10904;SDS011;5505;51.450;9.254;2023-09-30T11:57:22;3.50;;;1.30;;
10904;SDS011;5505;51.450;9.254;2023-09-30T12:00:11;2.77;;;1.50;;
10904;SDS011;5505;51.450;9.254;2023-09-30T12:02:59;2.83;;;1.50;;
10904;SDS011;5505;51.450;9.254;2023-09-30T12:05:46;4.50;;;1.67;;
10904;SDS011;5505;51.450;9.254;2023-09-30T12:08:33;3.07;;;1.60;;
10904;SDS011;5505;51.450;9.254;2023-09-30T12:11:19;2.63;;;1.37;;
10904;SDS011;5505;51.450;9.254;2023-09-30T12:14:09;6.10;;;1.53;;
10904;SDS011;5505;51.450;9.254;2023-09-30T12:16:58;5.07;;;1.70;;
10904;SDS011;5505;51.450;9.254;2023-09-30T12:19:45;4.93;;;1.67;;
10904;SDS011;5505;51.450;9.254;2023-09-30T12:22:31;3.73;;;1.70;;
10904;SDS011;5505;51.450;9.254;2023-09-30T12:25:18;2.70;;;1.20;;
10904;SDS011;5505;51.450;9.254;2023-09-30T12:28:06;3.23;;;1.57;;
10904;SDS011;5505;51.450;9.254;2023-09-30T12:30:53;3.23;;;1.40;;
10904;SDS011;5505;51.450;9.254;2023-09-30T12:33:41;3.30;;;1.40;;
10904;SDS011;5505;51.450;9.254;2023-09-30T12:36:28;4.43;;;1.90;;
10904;SDS011;5505;51.450;9.254;2023-09-30T12:39:15;3.97;;;1.80;;
10904;SDS011;5505;51.450;9.254;2023-09-30T12:42:02;4.30;;;1.90;;
10904;SDS011;5505;51.450;9.254;2023-09-30T12:44:53;3.23;;;1.67;;
10904;SDS011;5505;51.450;9.254;2023-09-30T12:47:40;3.17;;;1.60;;
10904;SDS011;5505;51.450;9.254;2023-09-30T12:50:28;2.70;;;1.47;;
10904;SDS011;5505;51.450;9.254;2023-09-30T12:53:15;3.60;;;1.87;;
10904;SDS011;5505;51.450;9.254;2023-09-30T12:56:02;5.57;;;1.53;;
10904;SDS011;5505;51.450;9.254;2023-09-30T12:58:49;4.53;;;1.60;;
10904;SDS011;5505;51.450;9.254;2023-09-30T13:01:36;3.97;;;1.60;;
10904;SDS011;5505;51.450;9.254;2023-09-30T13:04:24;3.30;;;1.57;;
10904;SDS011;5505;51.450;9.254;2023-09-30T13:07:13;2.90;;;1.37;;
10904;SDS011;5505;51.450;9.254;2023-09-30T13:10:00;4.20;;;1.50;;
10904;SDS011;5505;51.450;9.254;2023-09-30T13:12:50;3.93;;;1.90;;
10904;SDS011;5505;51.450;9.254;2023-09-30T13:15:38;5.17;;;1.60;;
10904;SDS011;5505;51.450;9.254;2023-09-30T13:18:25;3.43;;;1.60;;
10904;SDS011;5505;51.450;9.254;2023-09-30T13:21:12;2.93;;;1.63;;
10904;SDS011;5505;51.450;9.254;2023-09-30T13:24:00;4.93;;;1.73;;
10904;SDS011;5505;51.450;9.254;2023-09-30T13:26:47;3.23;;;1.50;;
10904;SDS011;5505;51.450;9.254;2023-09-30T13:29:37;3.93;;;1.73;;
10904;SDS011;5505;51.450;9.254;2023-09-30T13:32:25;3.13;;;1.67;;
10904;SDS011;5505;51.450;9.254;2023-09-30T13:35:12;3.30;;;1.77;;
10904;SDS011;5505;51.450;9.254;2023-09-30T13:38:00;4.23;;;1.53;;
10904;SDS011;5505;51.450;9.254;2023-09-30T13:40:50;4.33;;;1.70;;
10904;SDS011;5505;51.450;9.254;2023-09-30T13:43:37;3.90;;;2.27;;
10904;SDS011;5505;51.450;9.254;2023-09-30T13:46:24;3.27;;;1.60;;
10904;SDS011;5505;51.450;9.254;2023-09-30T13:49:14;2.43;;;1.33;;
10904;SDS011;5505;51.450;9.254;2023-09-30T13:52:05;5.07;;;1.60;;
10904;SDS011;5505;51.450;9.254;2023-09-30T13:54:52;3.20;;;1.50;;
10904;SDS011;5505;51.450;9.254;2023-09-30T13:57:53;3.73;;;1.57;;
10904;SDS011;5505;51.450;9.254;2023-09-30T14:00:46;3.47;;;1.50;;
10904;SDS011;5505;51.450;9.254;2023-09-30T14:03:33;3.47;;;1.50;;
10904;SDS011;5505;51.450;9.254;2023-09-30T14:06:20;3.63;;;1.53;;
10904;SDS011;5505;51.450;9.254;2023-09-30T14:09:06;3.37;;;1.63;;
10904;SDS011;5505;51.450;9.254;2023-09-30T14:11:59;3.63;;;1.60;;
10904;SDS011;5505;51.450;9.254;2023-09-30T14:14:47;3.30;;;1.50;;
10904;SDS011;5505;51.450;9.254;2023-09-30T14:17:36;4.37;;;1.67;;
10904;SDS011;5505;51.450;9.254;2023-09-30T14:20:23;3.03;;;1.60;;
10904;SDS011;5505;51.450;9.254;2023-09-30T14:23:10;2.60;;;1.53;;
10904;SDS011;5505;51.450;9.254;2023-09-30T14:25:57;3.17;;;1.90;;
10904;SDS011;5505;51.450;9.254;2023-09-30T14:28:44;4.33;;;1.80;;
10904;SDS011;5505;51.450;9.254;2023-09-30T14:31:33;2.47;;;1.57;;
10904;SDS011;5505;51.450;9.254;2023-09-30T14:34:19;3.73;;;1.70;;
10904;SDS011;5505;51.450;9.254;2023-09-30T14:37:06;3.70;;;1.83;;
10904;SDS011;5505;51.450;9.254;2023-09-30T14:39:53;3.13;;;1.83;;
10904;SDS011;5505;51.450;9.254;2023-09-30T14:42:40;3.00;;;1.90;;
10904;SDS011;5505;51.450;9.254;2023-09-30T14:45:27;3.20;;;1.60;;
10904;SDS011;5505;51.450;9.254;2023-09-30T14:48:15;2.63;;;1.73;;
10904;SDS011;5505;51.450;9.254;2023-09-30T14:51:01;3.17;;;1.70;;
10904;SDS011;5505;51.450;9.254;2023-09-30T14:53:49;5.23;;;1.77;;
10904;SDS011;5505;51.450;9.254;2023-09-30T14:56:36;5.57;;;1.83;;
10904;SDS011;5505;51.450;9.254;2023-09-30T14:59:23;3.43;;;1.80;;
10904;SDS011;5505;51.450;9.254;2023-09-30T15:02:10;4.23;;;1.33;;
10904;SDS011;5505;51.450;9.254;2023-09-30T15:04:58;3.67;;;1.43;;
10904;SDS011;5505;51.450;9.254;2023-09-30T15:07:45;3.40;;;1.40;;
10904;SDS011;5505;51.450;9.254;2023-09-30T15:10:33;2.70;;;1.83;;
10904;SDS011;5505;51.450;9.254;2023-09-30T15:13:21;4.40;;;1.50;;
10904;SDS011;5505;51.450;9.254;2023-09-30T15:16:13;4.27;;;1.83;;
10904;SDS011;5505;51.450;9.254;2023-09-30T15:19:01;1.83;;;1.40;;
10904;SDS011;5505;51.450;9.254;2023-09-30T15:21:49;3.20;;;1.30;;
10904;SDS011;5505;51.450;9.254;2023-09-30T15:24:36;6.63;;;1.67;;
10904;SDS011;5505;51.450;9.254;2023-09-30T15:27:23;3.40;;;1.43;;
10904;SDS011;5505;51.450;9.254;2023-09-30T15:30:10;3.73;;;1.63;;
10904;SDS011;5505;51.450;9.254;2023-09-30T15:32:58;3.60;;;2.10;;
10904;SDS011;5505;51.450;9.254;2023-09-30T15:35:47;3.67;;;1.53;;
10904;SDS011;5505;51.450;9.254;2023-09-30T15:38:35;2.20;;;1.27;;
10904;SDS011;5505;51.450;9.254;2023-09-30T15:41:23;3.33;;;1.50;;
10904;SDS011;5505;51.450;9.254;2023-09-30T15:44:10;3.70;;;1.57;;
10904;SDS011;5505;51.450;9.254;2023-09-30T15:46:57;2.43;;;1.60;;
10904;SDS011;5505;51.450;9.254;2023-09-30T15:49:44;4.57;;;1.50;;
10904;SDS011;5505;51.450;9.254;2023-09-30T15:52:30;2.27;;;1.47;;
10904;SDS011;5505;51.450;9.254;2023-09-30T15:55:19;3.43;;;1.63;;
10904;SDS011;5505;51.450;9.254;2023-09-30T15:58:06;5.27;;;1.43;;
10904;SDS011;5505;51.450;9.254;2023-09-30T16:00:53;4.90;;;1.57;;
10904;SDS011;5505;51.450;9.254;2023-09-30T16:03:41;4.30;;;1.47;;
10904;SDS011;5505;51.450;9.254;2023-09-30T16:06:28;3.93;;;1.50;;
10904;SDS011;5505;51.450;9.254;2023-09-30T16:09:15;3.47;;;1.50;;
10904;SDS011;5505;51.450;9.254;2023-09-30T16:12:03;2.87;;;1.50;;
10904;SDS011;5505;51.450;9.254;2023-09-30T16:14:50;2.93;;;1.70;;
10904;SDS011;5505;51.450;9.254;2023-09-30T16:17:37;3.83;;;2.30;;
10904;SDS011;5505;51.450;9.254;2023-09-30T16:20:24;3.30;;;2.03;;
10904;SDS011;5505;51.450;9.254;2023-09-30T16:23:11;2.70;;;1.50;;
10904;SDS011;5505;51.450;9.254;2023-09-30T16:25:58;4.00;;;2.03;;
10904;SDS011;5505;51.450;9.254;2023-09-30T16:28:46;2.67;;;1.60;;
10904;SDS011;5505;51.450;9.254;2023-09-30T16:31:33;3.50;;;1.50;;
10904;SDS011;5505;51.450;9.254;2023-09-30T16:34:19;4.20;;;1.73;;
10904;SDS011;5505;51.450;9.254;2023-09-30T16:37:06;3.33;;;1.90;;
10904;SDS011;5505;51.450;9.254;2023-09-30T16:39:53;3.97;;;1.83;;
10904;SDS011;5505;51.450;9.254;2023-09-30T16:42:40;4.90;;;1.70;;
10904;SDS011;5505;51.450;9.254;2023-09-30T16:45:28;4.00;;;1.93;;
10904;SDS011;5505;51.450;9.254;2023-09-30T16:48:15;3.30;;;2.00;;
10904;SDS011;5505;51.450;9.254;2023-09-30T16:51:05;4.17;;;2.00;;
10904;SDS011;5505;51.450;9.254;2023-09-30T16:53:54;3.57;;;1.90;;
10904;SDS011;5505;51.450;9.254;2023-09-30T16:56:41;5.17;;;2.00;;
10904;SDS011;5505;51.450;9.254;2023-09-30T16:59:28;2.93;;;1.73;;
10904;SDS011;5505;51.450;9.254;2023-09-30T17:02:16;4.30;;;1.80;;
10904;SDS011;5505;51.450;9.254;2023-09-30T17:05:03;4.80;;;1.70;;
10904;SDS011;5505;51.450;9.254;2023-09-30T17:07:51;3.63;;;1.57;;
10904;SDS011;5505;51.450;9.254;2023-09-30T17:10:38;2.87;;;1.60;;